Aviation Digital Data Service (ADDS)

Output produced by METARs form (1442 UTC 19 April 2019)
found at http://www.aviationweather.gov/metar/data/
 
Forecast for: WAAA (HASANUDDIN/UJUNG, ID)
Text: TAF WAAA 191100Z 1912/2018 11005KT 8000 SCT018
Forecast period: 1200 to 2100 UTC 19 April 2019
Forecast type: FROM: standard forecast or significant change
Winds: from the ESE (110 degrees) at 6 MPH (5 knots; 2.6 m/s)
Visibility: 5 miles (8 km)
Ceiling: at least 12,000 feet AGL
Clouds: scattered clouds at 1800 feet AGL
Weather: no significant weather forecast for this period
Text: BECMG 1921/1923 9999
Forecast period: 2100 UTC 19 April 2019 to 0100 UTC 20 April 2019
Forecast type: BECOMING: Conditions expected to become as follows by 2300 UTC 19 April 2019
Winds: from the ESE (110 degrees) at 6 MPH (5 knots; 2.6 m/s)
Visibility: 6 or more miles 10+ km)
Ceiling: at least 12,000 feet AGL
Clouds: scattered clouds at 1800 feet AGL
Weather: no significant weather forecast for this period
Text: BECMG 2001/2003 30010KT
Forecast period: 0100 to 1800 UTC 20 April 2019
Forecast type: BECOMING: Conditions expected to become as follows by 0300 UTC 20 April 2019
Winds: from the WNW (300 degrees) at 12 MPH (10 knots; 5.1 m/s)
Visibility: 6 or more miles 10+ km)
Ceiling: at least 12,000 feet AGL
Clouds: scattered clouds at 1800 feet AGL
Weather: no significant weather forecast for this period